Time;durP1;ratioP1;P1;durP2;ratioP2;P2;SDS_P1;SDS_P2;PMS_P1;PMS_P2;Temp;Humidity;BMP_temperature;BMP_pressure;BME280_temperature;BME280_humidity;BME280_pressure;Samples;Min_cycle;Max_cycle;Signal;HPM_P1;HPM_P2
2024/02/21 00:03:05;;;;;;;6.00;2.50;;;;;;;5.68;91.88;100641.33;130617;1260;106527;-78
2024/02/21 00:06:10;;;;;;;9.30;3.00;;;;;;;5.71;92.01;100638.47;130666;1259;107880;-79
2024/02/21 00:09:16;;;;;;;8.20;3.00;;;;;;;5.77;91.93;100636.60;130630;1258;107669;-79
2024/02/21 00:12:21;;;;;;;9.60;3.20;;;;;;;5.84;92.01;100636.27;130646;1258;107299;-78
2024/02/21 00:15:27;;;;;;;12.30;4.30;;;;;;;5.86;91.93;100633.77;130542;1258;107803;-78
2024/02/21 00:18:33;;;;;;;21.40;10.80;;;;;;;5.87;91.93;100633.57;130540;1259;108761;-78
2024/02/21 00:21:38;;;;;;;8.20;3.70;;;;;;;5.87;91.77;100627.56;130463;1259;107939;-78
2024/02/21 00:24:44;;;;;;;7.80;3.20;;;;;;;5.87;92.08;100626.32;130555;1254;108593;-78
2024/02/21 00:27:49;;;;;;;10.70;4.30;;;;;;;5.89;91.66;100621.42;130475;1256;107041;-81
2024/02/21 00:30:55;;;;;;;14.20;4.50;;;;;;;5.91;91.87;100624.30;130532;1260;106339;-78
2024/02/21 00:34:01;;;;;;;10.60;3.70;;;;;;;5.97;91.80;100617.52;130498;1260;107742;-78
2024/02/21 00:37:06;;;;;;;11.70;4.60;;;;;;;6.01;91.91;100619.70;130544;1259;108360;-79
2024/02/21 00:40:16;;;;;;;11.50;4.50;;;;;;;6.02;91.70;100620.67;130617;1261;107751;-78
2024/02/21 00:43:23;;;;;;;9.10;3.90;;;;;;;6.01;91.95;100622.52;130499;1260;106503;-80
2024/02/21 00:46:29;;;;;;;6.10;3.70;;;;;;;6.01;92.02;100620.77;130636;1269;108781;-80
2024/02/21 00:49:34;;;;;;;8.20;4.20;;;;;;;6.03;92.29;100617.77;130738;1259;106922;-78
2024/02/21 00:52:40;;;;;;;10.40;4.40;;;;;;;6.07;92.35;100611.58;130569;1259;109368;-77
2024/02/21 00:55:46;;;;;;;10.40;4.70;;;;;;;6.12;92.10;100611.59;130497;1268;108275;-78
2024/02/21 00:58:51;;;;;;;9.30;4.40;;;;;;;6.14;92.05;100607.58;130491;1258;106346;-78
2024/02/21 01:01:57;;;;;;;11.70;4.80;;;;;;;6.15;92.17;100602.23;130555;1259;107804;-78
2024/02/21 01:05:03;;;;;;;12.50;5.10;;;;;;;6.14;92.33;100603.14;130678;1260;107687;-78
2024/02/21 01:08:09;;;;;;;12.90;5.00;;;;;;;6.14;92.07;100599.44;130589;1259;106540;-78
2024/02/21 01:11:14;;;;;;;10.80;5.20;;;;;;;6.17;92.32;100594.30;130612;1260;107950;-78
2024/02/21 01:14:20;;;;;;;12.10;5.20;;;;;;;6.19;92.51;100592.17;130630;1259;107113;-78
2024/02/21 01:17:25;;;;;;;14.30;5.70;;;;;;;6.22;92.38;100591.77;130556;1267;107821;-78
2024/02/21 01:20:31;;;;;;;13.30;6.00;;;;;;;6.24;92.24;100589.45;130588;1259;106434;-78
2024/02/21 01:23:37;;;;;;;14.40;6.40;;;;;;;6.24;92.48;100586.66;130615;1266;107954;-78
2024/02/21 01:26:42;;;;;;;12.80;5.30;;;;;;;6.22;92.34;100584.85;130345;1266;241232;-78
2024/02/21 01:29:49;;;;;;;12.60;4.60;;;;;;;6.20;92.13;100586.79;130602;1264;106858;-78
2024/02/21 01:32:55;;;;;;;11.50;6.00;;;;;;;6.21;92.67;100589.71;130546;1267;108684;-77
2024/02/21 01:36:00;;;;;;;15.10;6.00;;;;;;;6.24;92.49;100587.88;130528;1268;107707;-79
2024/02/21 01:39:06;;;;;;;14.10;6.20;;;;;;;6.29;92.40;100584.35;130567;1268;107533;-80
2024/02/21 01:42:11;;;;;;;12.90;6.10;;;;;;;6.32;92.39;100581.17;130714;1261;107793;-78
2024/02/21 01:45:17;;;;;;;13.20;6.80;;;;;;;6.32;92.24;100572.12;130685;1258;106253;-78
2024/02/21 01:48:24;;;;;;;12.50;6.10;;;;;;;6.32;92.69;100576.02;130602;1270;108367;-78
2024/02/21 01:51:31;;;;;;;14.90;6.60;;;;;;;6.30;92.39;100578.98;130633;1260;107435;-78
2024/02/21 01:54:37;;;;;;;15.20;7.40;;;;;;;6.30;92.43;100573.14;130651;1258;107360;-78
2024/02/21 01:57:45;;;;;;;15.80;7.70;;;;;;;6.34;92.75;100574.27;130695;1259;108597;-78
2024/02/21 02:00:53;;;;;;;14.90;7.60;;;;;;;6.37;92.56;100572.77;130513;1260;108449;-82
2024/02/21 02:04:00;;;;;;;14.50;7.70;;;;;;;6.39;92.55;100566.96;130604;1259;108598;-78
2024/02/21 02:07:07;;;;;;;17.80;8.20;;;;;;;6.38;92.47;100563.77;130590;1260;107159;-78
2024/02/21 02:10:13;;;;;;;20.30;8.60;;;;;;;6.36;92.65;100566.19;130663;1259;107738;-78
2024/02/21 02:13:18;;;;;;;14.00;7.50;;;;;;;6.31;92.51;100562.52;130530;1266;107406;-77
2024/02/21 02:16:24;;;;;;;16.40;7.80;;;;;;;6.32;92.59;100563.34;130557;1266;107745;-78
2024/02/21 02:19:30;;;;;;;15.50;8.50;;;;;;;6.34;92.65;100555.89;130723;1266;106939;-77
2024/02/21 02:22:40;;;;;;;20.10;9.80;;;;;;;6.36;92.75;100553.80;130617;1266;106587;-78
2024/02/21 02:25:49;;;;;;;19.00;9.10;;;;;;;6.37;92.77;100551.76;130762;1266;107722;-78
2024/02/21 02:28:54;;;;;;;19.20;9.60;;;;;;;6.35;92.38;100547.83;130605;1259;106470;-77
2024/02/21 02:32:00;;;;;;;16.10;8.00;;;;;;;6.32;92.56;100548.25;130528;1266;105707;-79
2024/02/21 02:35:07;;;;;;;16.10;8.00;;;;;;;6.29;92.53;100546.17;130774;1258;106812;-78
2024/02/21 02:38:13;;;;;;;16.70;8.60;;;;;;;6.29;92.57;100547.05;130837;1254;106939;-78
2024/02/21 02:41:18;;;;;;;17.50;9.00;;;;;;;6.32;92.64;100546.55;130965;1257;106838;-78
2024/02/21 02:44:24;;;;;;;17.60;9.00;;;;;;;6.35;92.67;100545.75;130679;1260;106797;-77
2024/02/21 02:47:29;;;;;;;20.40;9.50;;;;;;;6.38;92.63;100547.77;130614;1260;108761;-77
2024/02/21 02:50:35;;;;;;;19.20;9.70;;;;;;;6.37;92.47;100542.02;130576;1260;106754;-78
2024/02/21 02:53:40;;;;;;;16.00;7.40;;;;;;;6.36;92.68;100543.73;130630;1260;106607;-78
2024/02/21 02:56:46;;;;;;;14.70;7.80;;;;;;;6.35;92.96;100545.02;130654;1259;107565;-79
2024/02/21 02:59:52;;;;;;;17.70;8.90;;;;;;;6.35;92.51;100548.77;130519;1257;107003;-78
2024/02/21 03:02:58;;;;;;;23.00;10.80;;;;;;;6.37;92.80;100547.70;130560;1267;107717;-78
2024/02/21 03:06:04;;;;;;;18.40;10.00;;;;;;;6.39;92.65;100546.50;130557;1267;108615;-79
2024/02/21 03:09:09;;;;;;;19.90;10.70;;;;;;;6.42;92.99;100543.95;130619;1261;107816;-78
2024/02/21 03:12:23;;;;;;;21.20;10.20;;;;;;;6.44;93.02;100542.73;130727;1266;107815;-78
2024/02/21 03:15:29;;;;;;;15.80;8.60;;;;;;;6.45;92.99;100542.30;130577;1254;106436;-77
2024/02/21 03:18:35;;;;;;;16.00;8.10;;;;;;;6.43;93.22;100539.48;130713;1255;107646;-77
2024/02/21 03:21:41;;;;;;;17.90;9.50;;;;;;;6.43;93.23;100536.25;130568;1254;106710;-78
2024/02/21 03:24:46;;;;;;;21.40;9.80;;;;;;;6.47;92.93;100540.02;130574;1254;108082;-78
2024/02/21 03:27:52;;;;;;;18.70;10.30;;;;;;;6.51;93.01;100535.16;130741;1258;106902;-78
2024/02/21 03:30:58;;;;;;;18.80;10.20;;;;;;;6.52;93.25;100534.48;130734;1259;108350;-78
2024/02/21 03:34:04;;;;;;;18.30;9.60;;;;;;;6.53;92.95;100528.77;130568;1257;108536;-77
2024/02/21 03:37:09;;;;;;;15.20;8.00;;;;;;;6.54;92.93;100528.23;130860;1256;108655;-77
2024/02/21 03:40:15;;;;;;;16.60;8.30;;;;;;;6.54;93.01;100528.50;130930;1260;108755;-78
2024/02/21 03:43:21;;;;;;;20.30;8.60;;;;;;;6.54;93.14;100525.52;130595;1258;107484;-78
2024/02/21 03:46:28;;;;;;;17.00;8.90;;;;;;;6.57;93.15;100527.23;130721;1259;107705;-80
2024/02/21 03:49:33;;;;;;;16.40;9.00;;;;;;;6.61;93.19;100521.98;130877;1267;107631;-81
2024/02/21 03:52:39;;;;;;;14.10;8.80;;;;;;;6.63;92.92;100523.35;130793;1260;107166;-83
2024/02/21 03:55:44;;;;;;;19.90;9.80;;;;;;;6.61;92.99;100519.27;130792;1257;106227;-81
2024/02/21 03:58:50;;;;;;;17.40;8.20;;;;;;;6.59;92.86;100522.89;131127;1254;107591;-81
2024/02/21 04:01:55;;;;;;;37.40;16.70;;;;;;;6.58;93.07;100518.66;131730;1254;108433;-83
2024/02/21 04:05:01;;;;;;;27.20;13.50;;;;;;;6.60;93.11;100520.66;130799;1261;106446;-83
2024/02/21 04:08:07;;;;;;;50.30;21.10;;;;;;;6.63;93.11;100523.52;130776;1266;108607;-82
2024/02/21 04:11:13;;;;;;;80.60;30.00;;;;;;;6.69;93.03;100524.14;130658;1257;107694;-83
2024/02/21 04:14:18;;;;;;;70.70;26.20;;;;;;;6.74;92.77;100523.98;130676;1266;108325;-82
2024/02/21 04:17:24;;;;;;;47.10;19.80;;;;;;;6.76;92.80;100522.24;130673;1267;105613;-82
2024/02/21 04:20:30;;;;;;;48.30;19.20;;;;;;;6.76;93.01;100517.42;130714;1267;108770;-82
2024/02/21 04:23:36;;;;;;;110.90;65.70;;;;;;;6.75;92.92;100517.34;130920;1257;108584;-82
2024/02/21 04:26:43;;;;;;;26.90;15.50;;;;;;;6.73;92.91;100513.78;130780;1258;106816;-83
2024/02/21 04:29:49;;;;;;;21.20;11.30;;;;;;;6.71;92.99;100516.09;130726;1267;107049;-82
2024/02/21 04:32:54;;;;;;;24.00;10.70;;;;;;;6.72;92.87;100511.39;130932;1254;106309;-83
2024/02/21 04:36:00;;;;;;;23.10;12.30;;;;;;;6.74;92.91;100508.94;130747;1257;107573;-83
2024/02/21 04:39:05;;;;;;;24.40;13.30;;;;;;;6.77;93.12;100509.41;130968;1254;108831;-83
2024/02/21 04:42:11;;;;;;;20.70;13.60;;;;;;;6.80;92.92;100503.72;130643;1259;107077;-82
2024/02/21 04:45:17;;;;;;;26.10;15.80;;;;;;;6.80;93.27;100506.01;130804;1258;107283;-83
2024/02/21 04:48:23;;;;;;;19.50;11.30;;;;;;;6.79;92.85;100498.80;130683;1258;108134;-82
2024/02/21 04:51:28;;;;;;;18.70;10.20;;;;;;;6.77;92.93;100499.89;130867;1265;108834;-82
2024/02/21 04:54:35;;;;;;;20.00;10.70;;;;;;;6.76;93.16;100502.27;130732;1257;107570;-83
2024/02/21 04:57:40;;;;;;;17.20;9.70;;;;;;;6.78;93.19;100497.47;130683;1254;107058;-83
2024/02/21 05:00:46;;;;;;;20.70;11.10;;;;;;;6.80;92.88;100495.20;130710;1258;106556;-83
2024/02/21 05:03:51;;;;;;;21.10;13.00;;;;;;;6.80;93.06;100491.98;130663;1253;106908;-83
2024/02/21 05:06:57;;;;;;;18.70;10.90;;;;;;;6.81;92.95;100487.34;130677;1258;106273;-83
2024/02/21 05:10:03;;;;;;;22.40;11.90;;;;;;;6.78;92.93;100486.84;130717;1258;106823;-83
2024/02/21 05:13:08;;;;;;;18.20;9.40;;;;;;;6.78;93.03;100486.36;130676;1263;107645;-83
2024/02/21 05:16:14;;;;;;;27.10;11.30;;;;;;;6.78;92.99;100481.95;130700;1254;107830;-83
2024/02/21 05:19:19;;;;;;;22.60;11.10;;;;;;;6.79;92.85;100485.54;130667;1257;107714;-83
2024/02/21 05:22:25;;;;;;;23.20;13.00;;;;;;;6.80;92.87;100478.92;130711;1257;106462;-83
2024/02/21 05:25:31;;;;;;;35.40;20.10;;;;;;;6.81;93.09;100479.02;130796;1257;109068;-83
2024/02/21 05:28:36;;;;;;;32.10;15.70;;;;;;;6.81;93.17;100476.88;130639;1254;106765;-83
2024/02/21 05:31:58;;;;;;;29.60;13.50;;;;;;;6.80;92.87;100474.66;130671;1258;106274;-83
2024/02/21 05:35:04;;;;;;;22.80;12.90;;;;;;;6.77;93.07;100470.52;130698;1258;107992;-83
2024/02/21 05:38:11;;;;;;;25.30;14.60;;;;;;;6.77;93.08;100459.52;130753;1260;108403;-83
2024/02/21 05:41:17;;;;;;;37.70;21.60;;;;;;;6.79;92.75;100452.01;130678;1261;107701;-83
2024/02/21 05:44:23;;;;;;;87.40;41.50;;;;;;;6.78;92.74;100462.80;130870;1257;107665;-83
2024/02/21 05:47:28;;;;;;;97.00;51.70;;;;;;;6.79;92.95;100468.91;130856;1253;106234;-82
2024/02/21 05:50:34;;;;;;;46.70;26.50;;;;;;;6.81;92.89;100465.04;130697;1254;106212;-82
2024/02/21 05:53:40;;;;;;;29.00;15.40;;;;;;;6.82;92.87;100460.52;130741;1266;108828;-83
2024/02/21 05:56:48;;;;;;;30.90;16.20;;;;;;;6.82;92.84;100464.46;130587;1258;107774;-83
2024/02/21 05:59:53;;;;;;;30.10;18.40;;;;;;;6.81;93.24;100466.10;130766;1266;108447;-83
2024/02/21 06:02:59;;;;;;;29.70;16.00;;;;;;;6.85;93.13;100479.55;130963;1253;107159;-83
2024/02/21 06:06:05;;;;;;;31.30;16.30;;;;;;;6.87;92.91;100479.10;130657;1257;106796;-83
2024/02/21 06:09:11;;;;;;;30.00;17.00;;;;;;;6.90;92.83;100478.10;130729;1257;107641;-82
2024/02/21 06:12:16;;;;;;;28.10;14.70;;;;;;;6.94;92.84;100476.00;130909;1265;107481;-83
2024/02/21 06:15:22;;;;;;;23.50;12.00;;;;;;;6.96;93.06;100480.08;130757;1258;107058;-83
2024/02/21 06:18:28;;;;;;;24.60;13.00;;;;;;;6.99;93.06;100477.05;130735;1258;108672;-83
2024/02/21 06:21:33;;;;;;;30.40;16.30;;;;;;;7.02;93.06;100473.57;130644;1256;107632;-83
2024/02/21 06:24:39;;;;;;;24.90;14.20;;;;;;;7.07;93.04;100473.90;130805;1257;107005;-83
2024/02/21 06:27:46;;;;;;;25.60;14.80;;;;;;;7.12;92.97;100475.31;130756;1257;106803;-83
2024/02/21 06:30:51;;;;;;;35.20;20.60;;;;;;;7.14;92.83;100472.11;130868;1257;107584;-82
2024/02/21 06:33:57;;;;;;;28.30;18.40;;;;;;;7.18;93.04;100467.02;130960;1254;107734;-85
2024/02/21 06:37:02;;;;;;;23.10;12.30;;;;;;;7.19;92.88;100464.97;130754;1254;107718;-83
2024/02/21 06:40:10;;;;;;;41.60;22.90;;;;;;;7.19;93.01;100464.23;130764;1258;106582;-84
2024/02/21 06:43:16;;;;;;;36.90;21.00;;;;;;;7.23;93.07;100463.40;130665;1257;107551;-85
2024/02/21 06:46:29;;;;;;;35.90;17.40;;;;;;;7.30;93.07;100458.27;130824;1255;106775;-83
2024/02/21 06:49:35;;;;;;;31.50;16.30;;;;;;;7.37;92.99;100458.77;130857;1254;106708;-80
2024/02/21 06:52:40;;;;;;;51.10;26.20;;;;;;;7.41;93.16;100459.96;130912;1267;107120;-80
2024/02/21 06:55:46;;;;;;;735.80;398.50;;;;;;;7.44;92.96;100457.39;130774;1258;107113;-80
2024/02/21 06:58:52;;;;;;;438.40;183.70;;;;;;;7.40;92.77;100456.85;130676;1258;108569;-81
2024/02/21 07:01:57;;;;;;;173.20;69.60;;;;;;;7.43;92.95;100461.77;130733;1254;106724;-81
2024/02/21 07:05:03;;;;;;;77.40;33.40;;;;;;;7.45;92.96;100458.24;130634;1257;107825;-80
2024/02/21 07:08:09;;;;;;;109.20;45.40;;;;;;;7.49;93.10;100457.89;130668;1253;108392;-81
2024/02/21 07:11:15;;;;;;;80.20;36.00;;;;;;;7.55;93.17;100454.02;130737;1257;106447;-81
2024/02/21 07:14:20;;;;;;;109.20;48.00;;;;;;;7.57;92.64;100452.63;130660;1253;108430;-80
2024/02/21 07:17:26;;;;;;;75.50;38.50;;;;;;;7.60;92.72;100454.16;130641;1258;107708;-82
2024/02/21 07:20:33;;;;;;;54.50;32.70;;;;;;;7.60;92.80;100451.45;130631;1257;106608;-81
2024/02/21 07:23:41;;;;;;;58.00;32.50;;;;;;;7.59;92.85;100449.46;130678;1259;107593;-81
2024/02/21 07:26:46;;;;;;;34.10;16.80;;;;;;;7.62;92.73;100446.88;130662;1257;106788;-81
2024/02/21 07:29:52;;;;;;;70.60;41.50;;;;;;;7.68;92.70;100442.87;130683;1254;108629;-81
2024/02/21 07:32:58;;;;;;;54.70;30.10;;;;;;;7.76;92.77;100439.31;130754;1257;107846;-81
2024/02/21 07:36:06;;;;;;;88.50;54.00;;;;;;;7.81;92.66;100441.19;130798;1257;107584;-80
2024/02/21 07:39:12;;;;;;;42.70;25.40;;;;;;;7.84;92.40;100433.14;130683;1253;106208;-81
2024/02/21 07:42:17;;;;;;;32.70;17.80;;;;;;;7.84;92.41;100432.42;130688;1257;107187;-81
2024/02/21 07:45:24;;;;;;;28.30;13.70;;;;;;;7.87;92.49;100427.98;130608;1255;106852;-81
2024/02/21 07:48:32;;;;;;;25.30;12.40;;;;;;;7.89;92.41;100423.39;130726;1259;106322;-81
2024/02/21 07:51:42;;;;;;;27.70;13.20;;;;;;;7.94;92.44;100423.70;130660;1257;108069;-84
2024/02/21 07:54:47;;;;;;;26.60;13.80;;;;;;;7.99;92.45;100422.52;130671;1254;107539;-82
2024/02/21 07:57:58;;;;;;;27.50;15.30;;;;;;;8.06;92.35;100419.25;130643;1257;107587;-82
2024/02/21 08:01:04;;;;;;;56.60;28.10;;;;;;;8.12;92.25;100415.50;130686;1258;107863;-81
2024/02/21 08:04:09;;;;;;;245.40;92.70;;;;;;;8.16;92.30;100410.77;130729;1257;107694;-81
2024/02/21 08:07:15;;;;;;;68.60;28.50;;;;;;;8.16;92.22;100409.02;130678;1259;107149;-81
2024/02/21 08:10:21;;;;;;;89.60;35.90;;;;;;;8.14;92.39;100407.01;130707;1255;107804;-81
2024/02/21 08:13:28;;;;;;;134.40;54.10;;;;;;;8.15;92.39;100407.80;130700;1253;107717;-80
2024/02/21 08:16:34;;;;;;;124.50;49.30;;;;;;;8.17;92.32;100409.42;130614;1258;106318;-83
2024/02/21 08:19:39;;;;;;;209.60;79.80;;;;;;;8.21;92.39;100403.27;130617;1254;107595;-81
2024/02/21 08:22:45;;;;;;;100.30;39.30;;;;;;;8.30;92.39;100397.13;130722;1257;108781;-80
2024/02/21 08:25:50;;;;;;;58.50;26.20;;;;;;;8.38;92.31;100393.95;130827;1254;107716;-80
2024/02/21 08:28:58;;;;;;;122.60;51.90;;;;;;;8.43;92.38;100385.54;130773;1257;108622;-80
2024/02/21 08:32:04;;;;;;;52.20;23.00;;;;;;;8.52;92.50;100380.31;130748;1258;106659;-80
2024/02/21 08:35:10;;;;;;;197.20;84.30;;;;;;;8.66;92.50;100377.52;130848;1257;108454;-80
2024/02/21 08:38:16;;;;;;;90.00;41.40;;;;;;;8.84;92.48;100370.73;130758;1258;108625;-80
2024/02/21 08:41:23;;;;;;;40.20;19.80;;;;;;;8.99;92.29;100371.61;130729;1261;108530;-80
2024/02/21 08:44:30;;;;;;;83.60;43.10;;;;;;;9.05;91.99;100371.67;130790;1254;107295;-80
2024/02/21 08:47:36;;;;;;;84.30;43.40;;;;;;;9.07;91.53;100368.96;130671;1259;106409;-81
2024/02/21 08:50:41;;;;;;;49.30;26.50;;;;;;;9.07;91.66;100369.42;130849;1254;107593;-81
2024/02/21 08:53:48;;;;;;;72.90;37.60;;;;;;;9.11;91.69;100365.98;130786;1257;107720;-80
2024/02/21 08:56:53;;;;;;;25.50;14.50;;;;;;;9.18;91.64;100360.00;130743;1256;106876;-81
2024/02/21 08:59:59;;;;;;;21.30;12.80;;;;;;;9.21;91.25;100363.98;130642;1254;107858;-83
2024/02/21 09:03:05;;;;;;;28.40;18.50;;;;;;;9.30;91.49;100358.55;130865;1257;107527;-84
2024/02/21 09:06:13;;;;;;;31.20;21.90;;;;;;;9.41;91.51;100359.98;130678;1253;109357;-83
2024/02/21 09:09:18;;;;;;;22.40;13.50;;;;;;;9.46;91.06;100361.17;130715;1265;108570;-82
2024/02/21 09:12:24;;;;;;;24.80;15.00;;;;;;;9.43;90.94;100365.45;130711;1258;108436;-82
2024/02/21 09:15:30;;;;;;;39.30;26.80;;;;;;;9.36;90.97;100367.41;130678;1254;108278;-82
2024/02/21 09:18:35;;;;;;;20.90;13.10;;;;;;;9.22;90.35;100366.16;130757;1258;107695;-81
2024/02/21 09:21:41;;;;;;;22.00;13.10;;;;;;;9.11;90.61;100366.56;130730;1254;108708;-81
2024/02/21 09:24:48;;;;;;;20.30;12.00;;;;;;;9.04;90.52;100360.96;130708;1254;108519;-81
2024/02/21 09:27:54;;;;;;;21.50;12.40;;;;;;;8.98;90.64;100362.19;130687;1254;107728;-81
2024/02/21 09:31:00;;;;;;;29.30;20.30;;;;;;;8.99;90.79;100361.02;130787;1254;108712;-79
2024/02/21 09:34:06;;;;;;;19.20;13.50;;;;;;;9.00;90.53;100363.25;130595;1258;107189;-78
2024/02/21 09:37:11;;;;;;;22.70;14.20;;;;;;;9.00;90.46;100361.33;130637;1259;106808;-79
2024/02/21 09:40:17;;;;;;;25.80;13.30;;;;;;;8.99;90.43;100357.50;130636;1273;108353;-80
2024/02/21 09:43:23;;;;;;;21.00;12.00;;;;;;;8.95;90.23;100356.96;130745;1257;107762;-81
2024/02/21 09:46:45;;;;;;;20.50;11.20;;;;;;;8.96;90.46;100357.95;130601;1257;108260;-80
2024/02/21 09:49:50;;;;;;;20.40;12.60;;;;;;;9.04;90.33;100359.73;130654;1258;106877;-81
2024/02/21 09:52:58;;;;;;;19.90;12.10;;;;;;;9.11;90.21;100358.02;130717;1257;107718;-81
2024/02/21 09:56:06;;;;;;;19.60;12.20;;;;;;;9.14;90.00;100354.35;130752;1257;108726;-80
2024/02/21 09:59:12;;;;;;;22.90;12.90;;;;;;;9.19;90.00;100347.64;130869;1258;107527;-80
2024/02/21 10:02:18;;;;;;;22.50;11.70;;;;;;;9.28;89.98;100342.75;130691;1257;108780;-83
2024/02/21 10:05:24;;;;;;;21.50;11.00;;;;;;;9.42;90.31;100335.27;130662;1257;107604;-81
2024/02/21 10:08:31;;;;;;;17.80;10.70;;;;;;;9.54;89.95;100336.95;130681;1258;106416;-80
2024/02/21 10:11:37;;;;;;;19.50;11.00;;;;;;;9.65;89.68;100330.92;130693;1257;107703;-81
2024/02/21 10:14:42;;;;;;;17.60;10.80;;;;;;;9.76;89.72;100327.75;130607;1257;108673;-80
2024/02/21 10:17:48;;;;;;;21.40;11.40;;;;;;;9.88;89.24;100327.21;130846;1257;107181;-81
2024/02/21 10:21:04;;;;;;;19.00;11.60;;;;;;;9.92;89.64;100324.14;130834;1258;108734;-80
2024/02/21 10:24:12;;;;;;;17.30;10.90;;;;;;;9.95;89.31;100319.73;130920;1254;108662;-80
2024/02/21 10:27:17;;;;;;;19.70;9.90;;;;;;;9.96;89.21;100317.21;130646;1257;107755;-81
2024/02/21 10:30:23;;;;;;;20.00;9.80;;;;;;;9.97;89.37;100317.45;130701;1257;107756;-81
2024/02/21 10:33:32;;;;;;;18.30;9.10;;;;;;;10.01;89.03;100315.57;130943;1253;107723;-81
2024/02/21 10:36:37;;;;;;;43.90;23.30;;;;;;;10.07;88.97;100315.57;130632;1257;107822;-80
2024/02/21 10:39:44;;;;;;;33.20;16.00;;;;;;;10.10;88.85;100312.02;130794;1258;107787;-80
2024/02/21 10:42:54;;;;;;;28.30;14.70;;;;;;;10.14;88.53;100300.91;130694;1253;107171;-80
2024/02/21 10:46:04;;;;;;;87.20;40.80;;;;;;;10.17;88.16;100300.71;130736;1258;107623;-80
2024/02/21 10:49:17;;;;;;;181.40;74.10;;;;;;;10.15;88.42;100298.93;130652;1253;106427;-80
2024/02/21 10:52:33;;;;;;;118.20;53.00;;;;;;;10.08;88.02;100302.11;130687;1257;107678;-80
2024/02/21 10:55:45;;;;;;;49.30;22.50;;;;;;;10.02;88.00;100293.81;130744;1257;107771;-81
2024/02/21 10:58:50;;;;;;;276.60;119.70;;;;;;;9.98;87.99;100290.86;130639;1258;108278;-80
2024/02/21 11:01:56;;;;;;;56.30;27.10;;;;;;;9.88;87.97;100289.00;130727;1253;105559;-81
2024/02/21 11:05:04;;;;;;;79.10;37.40;;;;;;;9.86;87.91;100285.46;130684;1258;107792;-80
2024/02/21 11:08:10;;;;;;;78.40;38.50;;;;;;;9.86;87.82;100284.22;130762;1254;106469;-82
2024/02/21 11:11:18;;;;;;;28.60;15.20;;;;;;;9.82;88.00;100281.91;130769;1257;108653;-81
2024/02/21 11:14:27;;;;;;;41.60;24.00;;;;;;;9.79;87.67;100279.30;130751;1254;107624;-80
2024/02/21 11:17:32;;;;;;;38.20;20.50;;;;;;;9.74;87.82;100273.80;130815;1257;107988;-81
2024/02/21 11:20:39;;;;;;;49.40;28.30;;;;;;;9.71;88.04;100269.98;130796;1258;108515;-81
2024/02/21 11:23:55;;;;;;;97.70;53.60;;;;;;;9.66;87.86;100267.42;130643;1254;107321;-81
2024/02/21 11:27:12;;;;;;;49.80;25.90;;;;;;;9.61;87.99;100265.81;130718;1257;106821;-81
2024/02/21 11:30:22;;;;;;;33.20;18.40;;;;;;;9.58;87.95;100258.27;130822;1258;106415;-81
2024/02/21 11:33:29;;;;;;;89.70;38.60;;;;;;;9.61;88.18;100257.75;130685;1257;106787;-81
2024/02/21 11:36:34;;;;;;;193.40;79.40;;;;;;;9.62;87.94;100251.84;130655;1258;107786;-80
2024/02/21 11:39:41;;;;;;;153.70;58.80;;;;;;;9.63;88.18;100248.69;130832;1257;108551;-81
2024/02/21 11:42:47;;;;;;;224.10;90.90;;;;;;;9.63;88.06;100250.83;130637;1257;107718;-80
2024/02/21 11:45:59;;;;;;;389.10;181.40;;;;;;;9.64;88.17;100246.33;130638;1257;106657;-80
2024/02/21 11:49:04;;;;;;;260.40;110.10;;;;;;;9.61;88.46;100247.61;130625;1257;106616;-80
2024/02/21 11:52:10;;;;;;;490.30;221.20;;;;;;;9.62;88.42;100245.41;130576;1258;107814;-80
2024/02/21 11:55:16;;;;;;;314.10;128.20;;;;;;;9.59;88.17;100242.88;130556;1255;107745;-80
2024/02/21 11:58:21;;;;;;;126.60;57.80;;;;;;;9.55;88.38;100238.83;130600;1255;108519;-80
2024/02/21 12:01:27;;;;;;;288.10;132.10;;;;;;;9.58;88.41;100237.14;130594;1259;107937;-81
2024/02/21 12:04:33;;;;;;;141.60;66.70;;;;;;;9.60;88.35;100232.17;130626;1257;107616;-80
2024/02/21 12:07:40;;;;;;;241.70;122.40;;;;;;;9.55;87.82;100233.48;130635;1257;108485;-81
2024/02/21 12:19:59;;;;;;;44.10;32.10;;;;;;;9.27;88.27;100219.09;130665;1257;107051;-80
2024/02/21 12:23:09;;;;;;;25.40;16.90;;;;;;;9.31;87.84;100214.48;130656;1258;107061;-80
2024/02/21 12:26:15;;;;;;;22.40;14.70;;;;;;;9.38;88.02;100210.07;130677;1257;106594;-80
2024/02/21 12:29:21;;;;;;;17.10;9.60;;;;;;;9.44;87.91;100204.67;130657;1253;107476;-80
2024/02/21 12:32:26;;;;;;;19.00;10.60;;;;;;;9.48;87.72;100200.95;130863;1253;109492;-81
2024/02/21 12:35:33;;;;;;;15.80;8.90;;;;;;;9.49;87.49;100199.80;130767;1254;107703;-80
2024/02/21 12:38:38;;;;;;;14.70;8.70;;;;;;;9.45;87.37;100198.59;130614;1258;108423;-80
2024/02/21 12:41:45;;;;;;;15.60;7.40;;;;;;;9.38;87.34;100194.65;130691;1258;107786;-80
2024/02/21 12:44:50;;;;;;;14.50;7.00;;;;;;;9.34;87.77;100186.67;130751;1259;107747;-80
2024/02/21 12:47:56;;;;;;;13.10;6.40;;;;;;;9.29;87.69;100181.30;130677;1257;106899;-80
2024/02/21 12:51:02;;;;;;;15.00;6.30;;;;;;;9.27;87.67;100177.61;130616;1254;107708;-80
2024/02/21 12:54:11;;;;;;;11.50;6.50;;;;;;;9.29;87.53;100171.89;130627;1254;107766;-81
2024/02/21 12:57:16;;;;;;;13.60;6.70;;;;;;;9.33;87.57;100173.96;130559;1254;108641;-80
2024/02/21 13:00:26;;;;;;;12.20;6.00;;;;;;;9.33;87.68;100170.05;130627;1258;106657;-80
2024/02/21 13:03:31;;;;;;;11.30;6.00;;;;;;;9.31;87.56;100169.39;130663;1261;106679;-80
2024/02/21 13:06:37;;;;;;;10.80;5.80;;;;;;;9.27;87.42;100168.55;130702;1258;107606;-80
2024/02/21 13:09:43;;;;;;;10.30;5.40;;;;;;;9.19;87.45;100166.14;130616;1259;107360;-80
2024/02/21 13:12:48;;;;;;;11.90;5.40;;;;;;;9.14;88.07;100165.67;130671;1257;107598;-80
2024/02/21 13:15:54;;;;;;;10.20;5.80;;;;;;;9.13;87.84;100158.54;130690;1253;106663;-80
2024/02/21 13:19:00;;;;;;;12.90;6.30;;;;;;;9.11;87.87;100151.92;130724;1257;106452;-78
2024/02/21 13:22:06;;;;;;;12.40;6.60;;;;;;;9.15;88.15;100142.89;130803;1254;107649;-81
2024/02/21 13:25:15;;;;;;;12.00;6.90;;;;;;;9.19;88.10;100139.69;130814;1259;108709;-81
2024/02/21 13:28:20;;;;;;;17.90;8.30;;;;;;;9.20;88.10;100129.77;130572;1253;170923;-80
2024/02/21 13:31:26;;;;;;;15.10;7.00;;;;;;;9.19;88.33;100122.62;130693;1257;108550;-80
2024/02/21 13:34:32;;;;;;;14.00;6.70;;;;;;;9.19;88.39;100112.70;130859;1253;108362;-81
2024/02/21 13:37:37;;;;;;;12.10;6.90;;;;;;;9.19;88.38;100110.21;130858;1259;108645;-81
2024/02/21 13:40:43;;;;;;;15.00;6.90;;;;;;;9.21;88.49;100106.23;130866;1253;106631;-80
2024/02/21 13:43:48;;;;;;;13.50;6.70;;;;;;;9.27;88.26;100098.08;130865;1267;108721;-80
2024/02/21 13:46:54;;;;;;;13.90;7.70;;;;;;;9.34;88.13;100091.85;130870;1253;108243;-81
2024/02/21 13:50:00;;;;;;;11.00;7.20;;;;;;;9.33;88.10;100090.33;130855;1254;107660;-80
2024/02/21 13:53:05;;;;;;;13.70;6.60;;;;;;;9.28;88.14;100083.77;130829;1253;107031;-81
2024/02/21 13:56:11;;;;;;;12.00;5.80;;;;;;;9.21;88.11;100083.01;130719;1258;107846;-80
2024/02/21 13:59:18;;;;;;;14.00;6.70;;;;;;;9.16;88.22;100077.30;130784;1258;108596;-80
2024/02/21 14:02:24;;;;;;;11.00;6.30;;;;;;;9.11;87.82;100069.31;130772;1259;107278;-81
2024/02/21 14:05:30;;;;;;;15.10;6.60;;;;;;;9.11;88.16;100067.48;130866;1259;107673;-80
2024/02/21 14:08:36;;;;;;;14.20;7.00;;;;;;;9.15;88.17;100060.40;130767;1253;108566;-81
2024/02/21 14:11:42;;;;;;;13.10;6.30;;;;;;;9.20;88.16;100048.88;130833;1254;106722;-82